Sønderborg Airport

EKSB · 南丹麦大区, 丹麦

罗盘
风向 的 风向 090° Sønderborg Airport 14/32
风: 10 kt, 3 beaufort

7 kt

8 kt
改变
0 ft 1.000 2.000 3.000 4.000 5.000
Cloud Cloud Cloud Cloud Cloud Cloud Cloud Cloud
OVC 600
METAR EKSB 032120Z AUTO 09010KT 5000 OVC006/// 06/05 Q1008

METAR Sønderborg Airport - EKSB/SGD

Sønderborg Airport是,丹麦中的中型机场。 该机场位于纬度54,96285和经度9,79403。 该机场有一条跑道: 14/32. 本场的ICAO机场代码为EKSB。 该机场的IATA代码为SGD。 机场在Kobenhavn FIR中。

该航空气象观测是针对Sønderborg Airport在2024年3月3日 22:20, 当地时间进行的。

机场观察

风向为090°,速度为10 kt。

可见度为5 km。

有乌云密布在600 ft的高度。 破损或更高的上限为600 ft。

温度为6 °C,阵风为1 °C。 露点为5 °C,相对湿度为93%。 海平面上的气压为1008 hPa (QNH)。

白天

今天,太阳从07:04升起,在18:01降落。 这适用于Sønderborg Airport,世界夏令时可能有所不同。 当地时间与世界标准时间之间的时差为+1 小时。 当前,没有夏令时有效。

公司介绍

我们没有关于这个机场的公司信息。

体会

到Vliegles.nl去找飞行课程,跳伞和其他飞行体验。 浏览页面,了解Sønderborg Airport附近所有可用的活动。 你也可以使用搜索功能来寻找你所在地附近的特定飞行课程、跳伞或其他飞行体验。

跑道

Id 标题 侧风 逆风 侧风 %
14/32 139°-319° 8 kt 7 kt 75 %

逆风成分最大的方向会被突出显示,并用于横风计算。 这并不一定意味着这个方向在使用。

乌云

600 ft OVC 乌云密布

温度 & 天气

温度 6 °C
露点 5 °C
相对湿度 93%
风寒 1 °C
Kp-index 3 (0-9)

白天

日出
07:04 (8:11)
中午
12:32
日落
18:01

小工具

你想在你的网站上有一个关于Sønderborg Airport的当前航空天气(METAR)的小部件吗?

显示HTML代码
?>